Cessnock, New South Wales

9:20 PM AEDT on February 10, 2016 (GMT +1100)
mySmart Farm - Hunter Valley | | Change Station
CLOSE
Current Station
Personal Weather Station
Location: Pokolbin, NEW SOUTH WALES
Elevation: 440 ft
Nearby Weather Stations

Elev 440 ft 32.82 °S, 151.32 °E | Updated 14 seconds ago

Clear
Clear
71.0 °F
Feels Like 74 °F
N
0.0
Wind Variable Wind from South
Gusts 2.0 mph

Today
High -- | Low -- °F
--% Chance of Precip.
Yesterday
High -- | Low -- °F
Precip. -- in
Pressure 29.92 in
Visibility -9999.0 miles
Clouds
Heat Index 74 °F
Dew Point 61 °F
Humidity 71%
Rainfall 0.00 in
Snow Depth Not available.
6:25 AM 7:51 PM
Waxing Crescent, 4% visible
METAR YWLM 101000Z 06009KT CAVOK 23/16 Q1013 USE TAF FOR ARRIVALS AFTER 1130Z NOSIG
Pressure 29.92 in
Visibility -9999.0 miles
Clouds
Heat Index 74 °F
Dew Point 61 °F
Humidity 71%
Rainfall 0.00 in
Snow Depth Not available.
6:25 AM 7:51 PM
Waxing Crescent, 4% visible
METAR YWLM 101000Z 06009KT CAVOK 23/16 Q1013 USE TAF FOR ARRIVALS AFTER 1130Z NOSIG

10-Day Weather Forecast

Almanac

Astronomy

Feb. 10, 2016 Rise Set
Actual Time
Civil Twilight
Nautical Twilight
Astronomical Twilight
Moon
Length of Visible Light
Length of Day
Tomorrow will be .
, % of the Moon is Illuminated

Today's Extremes

Country Highs Country Lows

Community

WunderPhotos

Upload Photos

1,891,830 photos uploaded!

WunderBlog® & News

Nearby

Air Quality

  Air Quality AQ Index Pollutant
Not available.

Snow Depth

Station Depth Elevation

Earthquake Activity

City Distance Mag. Time & Date
Minimum magnitude displayed is 2.5.

Coastal Water Temperatures

Place Temperature

Stations

Nearby Weather Stations

Station Location Temp. Windchill Dew Point Humidity Wind Precip. Elev Updated Type